Caldwell, Ohio
Current Conditions -  °F | °C
As of 6:53 PM on Thursday 27 Nov 2014 (Local Time) from KZZV Reporting Station
Overcast Overcast  
Wind Chill: 23°   Ceiling: 3600
Heat Index: 31°   Visibility: 10mi
Dew Point: 22°   Wind: 8mph
Humidity: 69%   Direction: 280°W
Pressure: 30.25"   Gusts: NA
Location:  39.75°N, 81.52°W
Report Text: KZZV 272353Z AUTO 28007KT 10SM SCT028 BKN036 OVC060 M01/M06 A3025 RMK AO2 SLP255 60000 T10061056 10006 21011 51017
Loading
Personal Weather Stations






























Interactive Weather Map New forecast layout! Learn more

10-Day Weather Forecast

Advertisements
Track Severe Weather on mobile